Latest Weather Observations for Port Kembla Harbour

IDN60801

Issued at 1:35 pm EDT Tuesday 23 December 2014 (issued every 30 minutes, with the page automatically refreshed every 10 minutes)

About weather observations | Map of weather stations | Latest weather observations for NSW | Other Formats
Station Details ID: 068253 Name: PORT KEMBLA NTC AWS Lat: -34.47 Lon: 150.91 Height: 0.0 m
Data from the previous 72 hours. | See also: Recent months for locations in New South Wales
Date/Time
EDT
Temp
°C
App
Temp
°C
Dew
Point
Rel
Hum
%
Delta-T
°C
Wind Press
QNH
hPa
Press
MSL
hPa
Rain
since 9 am
mm
Dir
 
Spd
km/h
Gust
km/h
Spd
kts
Gust
kts
23/01:30pm 21.0 - - - - NNE 20 32 11 17 1011.5 1011.5 -
23/01:00pm 20.8 - - - - NE 24 33 13 18 1011.3 1011.3 -
23/12:30pm 20.9 - - - - NE 24 33 13 18 1012.1 1012.1 -
23/12:00pm 20.7 - - - - NE 24 33 13 18 1012.1 1012.1 -
23/11:30am 21.0 - - - - NE 24 30 13 16 1012.9 1012.9 -
23/11:00am 21.0 - - - - NE 15 20 8 11 1013.3 1013.3 -
23/10:30am 20.8 - - - - NE 17 22 9 12 1013.4 1013.4 -
23/10:00am 20.8 - - - - NE 15 20 8 11 1013.8 1013.8 -
23/09:30am 20.8 - - - - NE 11 17 6 9 1014.2 1014.2 -
23/09:00am 20.9 - - - - NNE 9 13 5 7 1014.5 1014.5 -
23/08:30am 20.4 - - - - NE 15 17 8 9 1014.3 1014.3 -
23/08:00am 20.6 - - - - NNE 13 17 7 9 1014.3 1014.3 -
23/07:30am 20.5 - - - - N 9 15 5 8 1014.2 1014.2 -
23/07:00am 20.4 - - - - NE 22 32 12 17 1013.5 1013.5 -
23/06:30am 20.1 - - - - NE 19 24 10 13 1013.7 1013.7 -
23/06:00am 20.4 - - - - NNE 17 22 9 12 1013.8 1013.8 -
23/05:30am 20.5 - - - - NNE 17 22 9 12 1013.9 1013.9 -
23/05:00am 20.6 - - - - NE 17 20 9 11 1013.7 1013.7 -
23/04:30am 20.7 - - - - NE 19 24 10 13 1013.7 1013.7 -
23/04:00am 20.8 - - - - NNE 19 26 10 14 1014.1 1014.1 -
23/03:30am 20.9 - - - - NNE 17 24 9 13 1014.4 1014.4 -
23/03:00am 20.9 - - - - NNE 15 20 8 11 1014.5 1014.5 -
23/02:30am 20.9 - - - - NE 15 20 8 11 1014.3 1014.3 -
23/02:00am 20.9 - - - - NNE 15 19 8 10 1014.7 1014.7 -
23/01:30am 21.2 - - - - NNE 22 33 12 18 1014.9 1014.9 -
23/01:00am 21.2 - - - - NNE 20 30 11 16 1014.9 1014.9 -
23/12:30am 21.2 - - - - NE 24 33 13 18 1014.8 1014.8 -
23/12:00am 21.2 - - - - NE 24 32 13 17 1015.0 1015.0 -
 
Date/Time
EDT
Temp
°C
App
Temp
°C
Dew
Point
Rel
Hum
%
Delta-T
°C
Wind Press
QNH
hPa
Press
MSL
hPa
Rain
since 9 am
mm
Dir
 
Spd
km/h
Gust
km/h
Spd
kts
Gust
kts
22/11:30pm 21.3 - - - - NE 28 35 15 19 1015.3 1015.3 -
22/11:00pm 21.4 - - - - NE 28 35 15 19 1015.3 1015.3 -
22/10:30pm 21.4 - - - - NE 26 32 14 17 1015.2 1015.2 -
22/10:00pm 21.3 - - - - NE 22 30 12 16 1015.1 1015.1 -
22/09:30pm 21.4 - - - - NE 26 35 14 19 1015.2 1015.2 -
22/09:00pm 21.5 - - - - NE 28 35 15 19 1015.2 1015.2 -
22/08:30pm 21.6 - - - - NE 26 33 14 18 1015.1 1015.1 -
22/08:00pm 21.7 - - - - NE 30 39 16 21 1015.0 1015.0 -
22/07:30pm 21.8 - - - - NE 33 41 18 22 1014.9 1014.9 -
22/07:00pm 21.9 - - - - NE 32 41 17 22 1014.5 1014.5 -
22/06:30pm 22.1 - - - - NE 32 39 17 21 1014.2 1014.2 -
22/06:00pm 22.1 - - - - NE 33 44 18 24 1014.0 1014.0 -
22/05:30pm 22.0 - - - - NE 35 50 19 27 1014.2 1014.2 -
22/05:00pm 22.1 - - - - NE 33 46 18 25 1014.2 1014.2 -
22/04:30pm 22.2 - - - - NE 30 39 16 21 1014.3 1014.3 -
22/04:00pm 22.2 - - - - NE 30 39 16 21 1014.1 1014.1 -
22/03:30pm 22.3 - - - - NE 26 35 14 19 1014.3 1014.3 -
22/03:00pm 22.4 - - - - NE 24 32 13 17 1014.7 1014.7 -
22/02:30pm 22.4 - - - - NE 22 32 12 17 1014.8 1014.8 -
22/02:00pm 22.2 - - - - NE 22 32 12 17 1015.2 1015.2 -
22/01:30pm 22.0 - - - - NE 24 32 13 17 1015.7 1015.7 -
22/01:00pm 21.9 - - - - NNE 17 22 9 12 1015.8 1015.8 -
22/12:30pm 21.8 - - - - NNE 20 28 11 15 1016.1 1016.1 -
22/12:00pm 21.6 - - - - NE 20 28 11 15 1016.2 1016.2 -
22/11:30am 21.6 - - - - NE 22 28 12 15 1016.2 1016.2 -
22/11:00am 21.6 - - - - NE 22 30 12 16 1016.2 1016.2 -
22/10:30am 21.5 - - - - NE 19 26 10 14 1016.3 1016.3 -
22/10:00am 21.5 - - - - NE 11 17 6 9 1016.1 1016.1 -
22/09:30am 21.3 - - - - NE 11 17 6 9 1016.3 1016.3 -
22/09:00am 21.0 - - - - NE 9 13 5 7 1016.4 1016.4 -
22/08:30am 20.9 - - - - NE 7 11 4 6 1016.1 1016.1 -
22/08:00am 20.6 - - - - NE 6 7 3 4 1015.9 1015.9 -
22/07:30am 20.9 - - - - NNE 6 7 3 4 1015.6 1015.6 -
22/07:00am 20.4 - - - - NNW 6 7 3 4 1015.4 1015.4 -
22/06:30am 20.1 - - - - N 6 7 3 4 1015.1 1015.1 -
22/06:00am 20.0 - - - - N 6 9 3 5 1014.8 1014.8 -
22/05:30am 20.1 - - - - N 9 11 5 6 1014.4 1014.4 -
22/05:00am 20.2 - - - - N 6 9 3 5 1014.2 1014.2 -
22/04:30am 20.4 - - - - N 13 17 7 9 1014.0 1014.0 -
22/04:00am 19.9 - - - - NNE 11 15 6 8 1014.0 1014.0 -
22/03:30am 20.2 - - - - NNE 7 11 4 6 1014.3 1014.3 -
22/03:00am 20.7 - - - - NNE 7 9 4 5 1014.5 1014.5 -
22/02:30am 20.7 - - - - NNE 7 9 4 5 1014.9 1014.9 -
22/02:00am 20.8 - - - - N 7 9 4 5 1015.1 1015.1 -
22/01:30am 20.8 - - - - NNE 7 9 4 5 1015.3 1015.3 -
22/01:00am 20.8 - - - - N 7 11 4 6 1015.4 1015.4 -
22/12:30am 20.7 - - - - N 7 11 4 6 1015.8 1015.8 -
22/12:00am 21.0 - - - - NNE 13 17 7 9 1015.9 1015.9 -
 
Date/Time
EDT
Temp
°C
App
Temp
°C
Dew
Point
Rel
Hum
%
Delta-T
°C
Wind Press
QNH
hPa
Press
MSL
hPa
Rain
since 9 am
mm
Dir
 
Spd
km/h
Gust
km/h
Spd
kts
Gust
kts
21/11:30pm 21.0 - - - - NNE 13 17 7 9 1015.9 1015.9 -
21/11:00pm 21.0 - - - - NNE 13 19 7 10 1015.9 1015.9 -
21/10:30pm 21.0 - - - - NNE 17 22 9 12 1016.1 1016.1 -
21/10:00pm 21.2 - - - - NNE 19 24 10 13 1016.1 1016.1 -
21/09:30pm 21.3 - - - - NNE 17 22 9 12 1016.3 1016.3 -
21/09:00pm 21.5 - - - - NNE 22 28 12 15 1016.1 1016.1 -
21/08:30pm 21.4 - - - - NNE 19 26 10 14 1015.6 1015.6 -
21/08:00pm 21.4 - - - - NE 22 30 12 16 1015.1 1015.1 -
21/07:30pm 21.6 - - - - NE 22 32 12 17 1015.0 1015.0 -
21/07:00pm 21.9 - - - - NE 22 32 12 17 1014.7 1014.7 -
21/06:30pm 22.0 - - - - NE 24 32 13 17 1014.5 1014.5 -
21/06:00pm 22.0 - - - - NE 26 33 14 18 1014.5 1014.5 -
21/05:30pm 22.0 - - - - NE 24 30 13 16 1014.4 1014.4 -
21/05:00pm 22.1 - - - - NE 24 33 13 18 1014.6 1014.6 -
21/04:30pm 22.1 - - - - NE 22 33 12 18 1014.7 1014.7 -
21/04:00pm 22.0 - - - - NE 22 37 12 20 1015.0 1015.0 -
21/03:30pm 22.0 - - - - NE 24 35 13 19 1015.0 1015.0 -
21/03:00pm 21.9 - - - - NE 22 32 12 17 1015.4 1015.4 -
21/02:30pm 21.9 - - - - NE 22 32 12 17 1015.5 1015.5 -
21/02:00pm 21.8 - - - - NE 22 32 12 17 1015.8 1015.8 -
21/01:30pm 21.8 - - - - NE 24 33 13 18 1016.3 1016.3 -
21/01:00pm 21.7 - - - - NE 22 33 12 18 1016.8 1016.8 -
21/12:30pm 21.5 - - - - NE 24 33 13 18 1017.2 1017.2 -
21/12:00pm 21.5 - - - - NE 24 32 13 17 1017.3 1017.3 -
21/11:30am 21.3 - - - - NE 20 28 11 15 1017.4 1017.4 -
21/11:00am 21.1 - - - - NE 22 30 12 16 1017.3 1017.3 -
21/10:30am 20.9 - - - - NE 19 24 10 13 1017.4 1017.4 -
21/10:00am 20.8 - - - - NE 17 22 9 12 1017.5 1017.5 -
21/09:30am 20.8 - - - - NE 15 20 8 11 1017.8 1017.8 -
21/09:00am 20.5 - - - - NE 13 17 7 9 1018.0 1018.0 -
21/08:30am 20.2 - - - - NE 9 13 5 7 1017.9 1017.9 -
21/08:00am 20.1 - - - - NNE 6 9 3 5 1017.8 1017.8 -
21/07:30am 20.3 - - - - N 6 7 3 4 1017.5 1017.5 -
21/07:00am 19.6 - - - - N 4 7 2 4 1017.4 1017.4 -
21/06:30am 19.1 - - - - N 6 9 3 5 1017.2 1017.2 -
21/06:00am 19.0 - - - - N 6 9 3 5 1017.2 1017.2 -
21/05:30am 19.0 - - - - NNW 7 11 4 6 1017.1 1017.1 -
21/05:00am 18.8 - - - - NNW 6 9 3 5 1016.8 1016.8 -
21/04:30am 18.9 - - - - NNW 7 9 4 5 1016.8 1016.8 -
21/04:00am 18.9 - - - - N 4 7 2 4 1016.7 1016.7 -
21/03:30am 19.1 - - - - NNW 6 7 3 4 1016.8 1016.8 -
21/03:00am 19.3 - - - - NNE 7 9 4 5 1016.9 1016.9 -
21/02:30am 19.3 - - - - N 4 6 2 3 1017.1 1017.1 -
21/02:00am 19.3 - - - - NNW 6 7 3 4 1017.4 1017.4 -
21/01:30am 19.4 - - - - NW 4 7 2 4 1017.7 1017.7 -
21/01:00am 19.2 - - - - W 6 7 3 4 1018.0 1018.0 -

Other Formats:

Comma delimited format used in spreadsheet applications
http://www.bom.gov.au/fwo/IDN60801/IDN60801.95745.axf

JavaScript Object Notation format (JSON) in row-major order
http://www.bom.gov.au/fwo/IDN60801/IDN60801.95745.json